createdAt,value
2022-08-23T00:02:24.587Z,16.30
2022-08-23T00:05:03.420Z,16.40
2022-08-23T00:07:39.620Z,16.30
2022-08-23T00:10:13.121Z,16.30
2022-08-23T00:12:41.306Z,16.20
2022-08-23T00:15:13.054Z,16.20
2022-08-23T00:17:39.967Z,16.20
2022-08-23T00:20:12.324Z,16.20
2022-08-23T00:22:40.682Z,16.20
2022-08-23T00:25:11.882Z,16.10
2022-08-23T00:27:39.747Z,16.20
2022-08-23T00:30:11.014Z,16.20
2022-08-23T00:32:40.169Z,16.00
2022-08-23T00:35:10.201Z,15.90
2022-08-23T00:37:38.264Z,15.90
2022-08-23T00:40:09.980Z,15.90
2022-08-23T00:43:17.386Z,15.90
2022-08-23T00:46:40.990Z,15.90
2022-08-23T00:49:12.139Z,15.80
2022-08-23T00:51:52.937Z,15.80
2022-08-23T00:54:24.555Z,15.80
2022-08-23T00:56:52.961Z,15.80
2022-08-23T00:59:20.084Z,15.70
2022-08-23T01:01:49.145Z,15.70
2022-08-23T01:04:17.390Z,15.70
2022-08-23T01:06:53.757Z,15.70
2022-08-23T01:09:22.499Z,15.60
2022-08-23T01:12:32.348Z,15.60
2022-08-23T01:15:16.414Z,15.60
2022-08-23T01:18:01.636Z,15.60
2022-08-23T01:20:40.927Z,15.50
2022-08-23T01:23:33.608Z,15.50
2022-08-23T01:26:01.803Z,15.50
2022-08-23T01:28:29.344Z,15.40
2022-08-23T01:30:57.262Z,15.40
2022-08-23T01:33:24.117Z,15.40
2022-08-23T01:35:58.060Z,15.40
2022-08-23T01:38:26.831Z,15.30
2022-08-23T01:40:57.146Z,15.30
2022-08-23T01:43:24.727Z,15.30
2022-08-23T01:45:53.433Z,15.30
2022-08-23T01:48:21.703Z,15.30
2022-08-23T01:50:49.082Z,15.30
2022-08-23T01:53:16.691Z,15.30
2022-08-23T01:55:44.198Z,15.20
2022-08-23T01:58:11.471Z,15.10
2022-08-23T02:00:41.958Z,15.00
2022-08-23T02:03:12.507Z,15.00
2022-08-23T02:05:42.287Z,14.90
2022-08-23T02:08:28.158Z,14.70
2022-08-23T02:10:55.296Z,14.70
2022-08-23T02:13:23.092Z,14.80
2022-08-23T02:15:51.539Z,14.80
2022-08-23T02:18:22.715Z,14.80
2022-08-23T02:20:52.263Z,14.70
2022-08-23T02:23:21.522Z,14.60
2022-08-23T02:25:51.501Z,14.70
2022-08-23T02:28:23.523Z,14.60
2022-08-23T02:30:52.059Z,14.40
2022-08-23T02:33:19.600Z,14.30
2022-08-23T02:35:48.005Z,14.40
2022-08-23T02:38:15.066Z,14.30
2022-08-23T02:40:42.505Z,14.30
2022-08-23T02:43:09.638Z,14.30
2022-08-23T02:45:37.867Z,14.30
2022-08-23T02:48:06.408Z,14.30
2022-08-23T02:50:33.626Z,14.20
2022-08-23T02:53:00.878Z,14.30
2022-08-23T02:55:28.360Z,14.30
2022-08-23T02:57:55.647Z,14.20
2022-08-23T03:00:23.445Z,14.20
2022-08-23T03:02:50.370Z,14.20
2022-08-23T03:05:17.921Z,14.00
2022-08-23T03:07:45.357Z,14.00
2022-08-23T03:10:13.539Z,14.10
2022-08-23T03:12:40.406Z,14.00
2022-08-23T03:15:08.505Z,14.00
2022-08-23T03:17:35.901Z,13.90
2022-08-23T03:20:04.331Z,13.90
2022-08-23T03:22:31.143Z,13.90
2022-08-23T03:24:58.467Z,13.80
2022-08-23T03:27:25.310Z,13.80
2022-08-23T03:29:52.560Z,13.70
2022-08-23T03:32:19.483Z,13.70
2022-08-23T03:34:46.798Z,13.70
2022-08-23T03:37:13.739Z,13.70
2022-08-23T03:39:41.120Z,13.70
2022-08-23T03:42:08.570Z,13.80
2022-08-23T03:44:35.443Z,13.80
2022-08-23T03:47:02.410Z,13.90
2022-08-23T03:49:29.396Z,13.80
2022-08-23T03:51:56.429Z,13.90
2022-08-23T03:54:23.382Z,13.70
2022-08-23T03:57:05.527Z,13.60
2022-08-23T03:59:34.881Z,13.60
2022-08-23T04:02:01.914Z,13.60
2022-08-23T04:04:28.982Z,13.60
2022-08-23T04:06:56.309Z,13.60
2022-08-23T04:09:23.867Z,13.60
2022-08-23T04:11:52.285Z,13.60
2022-08-23T04:14:19.593Z,13.60
2022-08-23T04:16:46.952Z,13.50
2022-08-23T04:19:15.951Z,13.50
2022-08-23T04:21:48.169Z,13.40
2022-08-23T04:24:16.989Z,13.50
2022-08-23T04:26:43.864Z,13.70
2022-08-23T04:29:23.103Z,13.80
2022-08-23T04:32:02.725Z,13.70
2022-08-23T04:34:33.770Z,13.80
2022-08-23T04:37:02.107Z,13.90
2022-08-23T04:39:29.270Z,13.90
2022-08-23T04:42:15.062Z,14.00
2022-08-23T04:44:42.819Z,14.00
2022-08-23T04:47:10.068Z,14.10
2022-08-23T04:49:37.047Z,14.10
2022-08-23T04:52:04.118Z,14.20
2022-08-23T04:54:31.388Z,14.20
2022-08-23T04:56:58.341Z,14.10
2022-08-23T04:59:25.124Z,14.00
2022-08-23T05:01:52.067Z,14.10
2022-08-23T05:04:19.048Z,14.10
2022-08-23T05:06:45.979Z,14.00
2022-08-23T05:09:19.850Z,14.10
2022-08-23T05:11:47.497Z,14.20
2022-08-23T05:14:14.342Z,14.30
2022-08-23T05:16:41.141Z,14.20
2022-08-23T05:19:08.009Z,14.40
2022-08-23T05:21:34.849Z,14.30
2022-08-23T05:24:03.748Z,14.30
2022-08-23T05:26:30.764Z,14.30
2022-08-23T05:28:57.696Z,14.30
2022-08-23T05:31:26.838Z,14.10
2022-08-23T05:33:54.039Z,14.10
2022-08-23T05:36:22.098Z,14.20
2022-08-23T05:38:50.557Z,14.20
2022-08-23T05:41:19.156Z,14.20
2022-08-23T05:43:50.467Z,14.30
2022-08-23T05:46:21.972Z,14.30
2022-08-23T05:48:53.572Z,14.20
2022-08-23T05:51:29.394Z,14.30
2022-08-23T05:54:01.003Z,14.50
2022-08-23T05:56:33.229Z,14.60
2022-08-23T05:59:06.483Z,14.70
2022-08-23T06:01:40.568Z,14.80
2022-08-23T06:04:12.416Z,15.10
2022-08-23T06:06:41.855Z,15.40
2022-08-23T06:09:14.306Z,15.60
2022-08-23T06:11:46.529Z,15.80
2022-08-23T06:14:14.292Z,15.90
2022-08-23T06:16:46.723Z,15.90
2022-08-23T06:19:15.081Z,15.90
2022-08-23T06:21:43.814Z,16.10
2022-08-23T06:24:12.436Z,16.20
2022-08-23T06:26:44.554Z,16.20
2022-08-23T06:29:19.112Z,16.20
2022-08-23T06:31:51.058Z,16.10
2022-08-23T06:34:23.325Z,16.00
2022-08-23T06:36:57.832Z,16.00
2022-08-23T06:39:27.959Z,15.90
2022-08-23T06:42:10.188Z,15.80
2022-08-23T06:44:50.798Z,15.80
2022-08-23T06:47:18.176Z,15.90
2022-08-23T06:49:57.441Z,15.90
2022-08-23T06:52:27.429Z,15.90
2022-08-23T06:54:54.543Z,16.00
2022-08-23T06:57:21.786Z,16.20
2022-08-23T06:59:49.983Z,16.20
2022-08-23T07:02:17.144Z,16.30
2022-08-23T07:04:44.277Z,16.30
2022-08-23T07:07:12.389Z,16.40
2022-08-23T07:09:40.879Z,16.40
2022-08-23T07:12:08.720Z,16.40
2022-08-23T07:14:38.069Z,16.60
2022-08-23T07:17:05.279Z,16.70
2022-08-23T09:36:25.698Z,23.50
2022-08-23T09:39:30.953Z,23.90
2022-08-23T09:41:59.909Z,23.90
2022-08-23T09:44:41.985Z,23.90
2022-08-23T09:47:17.079Z,23.70
2022-08-23T09:49:48.365Z,23.40
2022-08-23T09:52:26.981Z,23.40
2022-08-23T09:55:34.115Z,23.30
2022-08-23T09:58:06.676Z,22.90
2022-08-23T10:00:36.373Z,22.60
2022-08-23T10:03:27.093Z,22.80
2022-08-23T10:05:58.450Z,23.10
2022-08-23T10:08:33.420Z,22.90
2022-08-23T10:11:29.406Z,23.20
2022-08-23T10:13:56.828Z,23.40
2022-08-23T10:16:55.831Z,23.40
2022-08-23T10:19:47.884Z,23.40
2022-08-23T10:22:26.872Z,23.50
2022-08-23T10:25:36.743Z,23.60
2022-08-23T10:28:45.134Z,23.70
2022-08-23T10:31:32.673Z,23.70
2022-08-23T10:34:31.240Z,24.00
2022-08-23T10:37:15.726Z,23.90
2022-08-23T10:40:04.795Z,23.80
2022-08-23T10:43:01.501Z,23.70
2022-08-23T10:45:38.915Z,23.80
2022-08-23T10:48:29.392Z,23.90
2022-08-23T10:51:00.821Z,24.10
2022-08-23T10:53:46.679Z,24.20
2022-08-23T10:56:21.926Z,24.10
2022-08-23T10:58:56.994Z,24.10
2022-08-23T11:01:34.356Z,24.20
2022-08-23T11:04:07.295Z,24.30
2022-08-23T11:06:37.257Z,24.40
2022-08-23T11:09:19.247Z,24.50
2022-08-23T11:11:59.092Z,24.60
2022-08-23T11:14:31.927Z,24.90
2022-08-23T11:17:07.006Z,25.10
2022-08-23T11:19:52.483Z,25.40
2022-08-23T11:22:27.224Z,25.20
2022-08-23T11:25:05.429Z,25.10
2022-08-23T11:27:40.647Z,24.90
2022-08-23T11:30:32.524Z,24.90
2022-08-23T11:33:16.778Z,24.80
2022-08-23T11:36:22.315Z,24.60
2022-08-23T11:38:49.107Z,24.60
2022-08-23T11:41:30.352Z,24.70
2022-08-23T11:43:57.158Z,24.80
2022-08-23T11:46:31.610Z,25.10
2022-08-23T11:49:16.718Z,25.40
2022-08-23T11:52:11.287Z,25.50
2022-08-23T11:55:15.078Z,25.40
2022-08-23T11:58:23.394Z,25.40
2022-08-23T12:01:12.830Z,25.50
2022-08-23T12:04:01.622Z,25.90
2022-08-23T12:06:42.948Z,26.00
2022-08-23T12:09:21.053Z,26.40
2022-08-23T12:11:56.499Z,26.30
2022-08-23T12:14:32.490Z,26.00
2022-08-23T12:17:26.482Z,26.00
2022-08-23T12:20:17.042Z,26.10
2022-08-23T12:23:15.818Z,26.20
2022-08-23T12:25:43.814Z,26.00
2022-08-23T12:28:40.745Z,25.80
2022-08-23T12:31:47.149Z,25.90
2022-08-23T12:34:32.745Z,25.90
2022-08-23T12:41:49.265Z,26.00
2022-08-23T12:44:22.743Z,26.10
2022-08-23T12:46:50.867Z,26.30
2022-08-23T12:49:35.133Z,26.10
2022-08-23T12:52:13.116Z,25.90
2022-08-23T12:54:46.436Z,25.70
2022-08-23T12:57:19.671Z,25.90
2022-08-23T13:28:31.110Z,26.00
2022-08-23T13:31:07.935Z,25.90
2022-08-23T13:33:35.164Z,25.80
2022-08-23T13:36:21.839Z,25.90
2022-08-23T13:38:49.639Z,25.80
2022-08-23T13:41:38.508Z,25.80
2022-08-23T13:44:08.548Z,25.90
2022-08-23T13:46:45.310Z,26.00
2022-08-23T13:49:28.511Z,26.10
2022-08-23T13:54:51.216Z,25.80
2022-08-23T13:57:20.662Z,26.10
2022-08-23T13:59:56.035Z,26.10
2022-08-23T14:02:24.467Z,26.10
2022-08-23T14:04:52.101Z,26.00
2022-08-23T14:07:19.702Z,26.00
2022-08-23T14:09:50.092Z,25.90
2022-08-23T14:12:25.525Z,25.80
2022-08-23T14:14:56.784Z,25.90
2022-08-23T14:17:23.977Z,25.70
2022-08-23T14:22:38.762Z,25.70
2022-08-23T14:25:07.673Z,25.50
2022-08-23T14:27:35.320Z,25.50
2022-08-23T14:30:04.622Z,25.60
2022-08-23T14:32:32.312Z,25.60
2022-08-23T14:34:59.232Z,25.60
2022-08-23T14:40:13.573Z,25.30
2022-08-23T14:42:40.715Z,25.40
2022-08-23T14:45:08.275Z,25.30
2022-08-23T14:47:35.613Z,25.40
2022-08-23T14:50:06.785Z,25.40
2022-08-23T14:52:37.004Z,25.60
2022-08-23T14:55:04.561Z,25.50
2022-08-23T14:57:31.496Z,25.60
2022-08-23T14:59:59.082Z,25.70
2022-08-23T15:02:27.651Z,25.80
2022-08-23T15:04:55.721Z,25.80
2022-08-23T15:07:23.693Z,26.00
2022-08-23T15:09:54.702Z,25.90
2022-08-23T15:15:15.784Z,25.50
2022-08-23T15:17:51.926Z,25.50
2022-08-23T15:20:21.481Z,25.40
2022-08-23T15:22:55.250Z,25.40
2022-08-23T15:25:25.166Z,25.30
2022-08-23T15:27:52.472Z,25.20
2022-08-23T15:30:19.732Z,25.00
2022-08-23T15:32:52.527Z,25.10
2022-08-23T15:35:25.824Z,25.20
2022-08-23T15:37:54.743Z,25.40
2022-08-23T15:57:47.765Z,25.30
2022-08-23T16:00:17.876Z,25.00
2022-08-23T16:03:15.891Z,24.90
2022-08-23T16:05:32.455Z,24.70
2022-08-23T16:10:34.013Z,24.90
2022-08-23T16:13:01.275Z,24.80
2022-08-23T16:15:28.216Z,24.70
2022-08-23T16:17:55.146Z,24.60
2022-08-23T16:20:22.279Z,24.50
2022-08-23T16:22:49.158Z,24.50
2022-08-23T16:25:16.032Z,24.40
2022-08-23T16:27:43.176Z,24.40
2022-08-23T16:30:12.613Z,24.40
2022-08-23T16:32:40.074Z,24.30
2022-08-23T16:35:08.422Z,24.30
2022-08-23T16:37:36.355Z,24.30
2022-08-23T16:40:07.664Z,24.30
2022-08-23T16:42:34.679Z,24.30
2022-08-23T16:45:02.075Z,24.30
2022-08-23T16:47:32.316Z,24.20
2022-08-23T16:49:59.243Z,24.10
2022-08-23T16:52:26.117Z,24.10
2022-08-23T16:55:07.191Z,24.20
2022-08-23T16:57:34.325Z,24.20
2022-08-23T17:00:02.103Z,24.00
2022-08-23T17:02:35.424Z,23.80
2022-08-23T17:05:03.350Z,23.50
2022-08-23T17:07:30.512Z,23.30
2022-08-23T17:09:57.423Z,23.20
2022-08-23T17:12:24.281Z,23.10
2022-08-23T17:14:51.717Z,23.10
2022-08-23T17:17:18.879Z,22.90
2022-08-23T17:19:45.729Z,22.80
2022-08-23T17:22:13.395Z,22.70
2022-08-23T17:24:40.707Z,22.50
2022-08-23T17:27:08.141Z,22.40
2022-08-23T17:29:37.625Z,22.20
2022-08-23T17:32:05.418Z,22.20
2022-08-23T17:34:32.640Z,22.10
2022-08-23T17:36:59.709Z,22.00
2022-08-23T17:39:29.301Z,22.00
2022-08-23T17:41:57.857Z,21.90
2022-08-23T17:44:25.059Z,21.90
2022-08-23T17:46:52.512Z,21.80
2022-08-23T17:49:20.264Z,21.70
2022-08-23T17:51:47.443Z,21.70
2022-08-23T17:54:15.827Z,21.60
2022-08-23T17:56:50.182Z,21.50
2022-08-23T17:59:19.767Z,21.40
2022-08-23T18:01:46.780Z,21.30
2022-08-23T18:04:13.900Z,21.30
2022-08-23T18:06:41.163Z,21.30
2022-08-23T18:09:08.376Z,21.20
2022-08-23T18:11:36.200Z,21.00
2022-08-23T18:14:03.634Z,21.00
2022-08-23T18:16:35.327Z,21.00
2022-08-23T18:19:05.889Z,21.00
2022-08-23T18:21:38.849Z,20.90
2022-08-23T18:24:07.389Z,20.80
2022-08-23T18:26:55.358Z,20.80
2022-08-23T18:29:23.607Z,20.70
2022-08-23T18:31:51.097Z,20.60
2022-08-23T18:34:19.277Z,20.60
2022-08-23T18:36:46.947Z,20.60
2022-08-23T18:39:15.481Z,20.50
2022-08-23T18:41:43.094Z,20.50
2022-08-23T18:44:10.924Z,20.50
2022-08-23T18:46:41.563Z,20.40
2022-08-23T18:49:10.452Z,20.40
2022-08-23T18:51:39.538Z,20.30
2022-08-23T18:54:07.556Z,20.40
2022-08-23T18:56:35.157Z,20.40
2022-08-23T18:59:03.758Z,20.30
2022-08-23T19:01:36.367Z,20.20
2022-08-23T19:04:06.157Z,20.10
2022-08-23T19:06:34.019Z,20.00
2022-08-23T19:09:01.119Z,20.00
2022-08-23T19:11:29.694Z,20.00
2022-08-23T19:13:58.410Z,19.90
2022-08-23T19:16:26.511Z,19.80
2022-08-23T19:18:55.056Z,19.90
2022-08-23T19:21:25.483Z,19.90
2022-08-23T19:23:56.003Z,19.90
2022-08-23T19:26:31.686Z,19.80
2022-08-23T19:29:00.815Z,19.70
2022-08-23T19:31:33.549Z,19.60
2022-08-23T19:34:03.444Z,19.60
2022-08-23T19:36:45.700Z,19.60
2022-08-23T19:39:13.875Z,19.60
2022-08-23T19:41:41.964Z,19.70
2022-08-23T19:44:09.768Z,19.70
2022-08-23T19:46:41.222Z,19.50
2022-08-23T19:49:12.579Z,19.40
2022-08-23T19:51:40.047Z,19.30
2022-08-23T19:54:11.328Z,19.20
2022-08-23T19:56:46.915Z,19.10
2022-08-23T19:59:19.556Z,19.10
2022-08-23T20:01:52.246Z,19.10
2022-08-23T20:04:21.013Z,19.00
2022-08-23T20:06:48.795Z,18.80
2022-08-23T20:09:16.647Z,18.70
2022-08-23T20:11:43.631Z,18.80
2022-08-23T20:14:11.019Z,18.90
2022-08-23T20:16:40.984Z,18.90
2022-08-23T20:19:10.195Z,18.90
2022-08-23T20:21:38.957Z,18.80
2022-08-23T20:24:07.866Z,18.80
2022-08-23T20:26:42.066Z,18.70
2022-08-23T20:29:18.371Z,18.60
2022-08-23T20:31:56.142Z,18.60
2022-08-23T20:34:26.463Z,18.50
2022-08-23T20:36:56.028Z,18.50
2022-08-23T20:39:24.840Z,18.60
2022-08-23T20:41:53.012Z,18.70
2022-08-23T20:44:21.749Z,18.70
2022-08-23T20:46:53.746Z,18.70
2022-08-23T20:49:22.452Z,18.70
2022-08-23T20:51:50.125Z,18.70
2022-08-23T20:54:18.313Z,18.70
2022-08-23T20:56:45.454Z,18.70
2022-08-23T20:59:15.484Z,18.80
2022-08-23T21:01:42.420Z,18.80
2022-08-23T21:04:10.349Z,18.80
2022-08-23T21:06:45.143Z,18.70
2022-08-23T21:09:17.151Z,18.70
2022-08-23T21:11:45.675Z,18.70
2022-08-23T21:14:15.330Z,18.70
2022-08-23T21:16:44.862Z,18.60
2022-08-23T21:19:12.004Z,18.70
2022-08-23T21:21:39.669Z,18.70
2022-08-23T21:24:09.025Z,18.70
2022-08-23T21:26:36.636Z,18.70
2022-08-23T21:29:05.162Z,18.70
2022-08-23T21:31:32.339Z,18.70
2022-08-23T21:34:00.526Z,18.70
2022-08-23T21:36:28.708Z,18.70
2022-08-23T21:38:55.834Z,18.70
2022-08-23T21:41:37.190Z,18.70
2022-08-23T21:44:09.228Z,18.60
2022-08-23T21:46:42.400Z,18.60
2022-08-23T21:49:12.406Z,18.60
2022-08-23T21:51:41.302Z,18.60
2022-08-23T21:54:11.244Z,18.50
2022-08-23T21:56:39.517Z,18.50
2022-08-23T21:59:10.126Z,18.50
2022-08-23T22:01:39.299Z,18.40
2022-08-23T22:04:09.819Z,18.40
2022-08-23T22:06:38.636Z,18.40
2022-08-23T22:09:09.052Z,18.30
2022-08-23T22:11:41.627Z,18.30
2022-08-23T22:14:11.351Z,18.30
2022-08-23T22:16:40.753Z,18.30
2022-08-23T22:19:08.016Z,18.30
2022-08-23T22:21:35.825Z,18.30
2022-08-23T22:24:02.930Z,18.30
2022-08-23T22:26:29.870Z,18.20
2022-08-23T22:28:57.153Z,18.20
2022-08-23T22:31:24.843Z,18.10
2022-08-23T22:33:52.771Z,18.00
2022-08-23T22:36:22.109Z,18.10
2022-08-23T22:38:50.915Z,18.00
2022-08-23T22:41:21.921Z,17.90
2022-08-23T22:43:48.826Z,17.90
2022-08-23T22:46:16.207Z,17.90
2022-08-23T22:48:43.487Z,17.80
2022-08-23T22:51:13.588Z,17.80
2022-08-23T22:53:47.344Z,17.80
2022-08-23T22:56:22.207Z,17.80
2022-08-23T22:58:52.690Z,17.80
2022-08-23T23:01:27.665Z,17.80
2022-08-23T23:03:57.638Z,17.70
2022-08-23T23:06:25.210Z,17.70
2022-08-23T23:08:52.613Z,17.70
2022-08-23T23:11:22.104Z,17.60
2022-08-23T23:13:50.201Z,17.60
2022-08-23T23:16:23.087Z,17.50
2022-08-23T23:19:09.232Z,17.50
2022-08-23T23:21:43.711Z,17.60
2022-08-23T23:24:15.878Z,17.60
2022-08-23T23:26:42.974Z,17.50
2022-08-23T23:29:14.868Z,17.40
2022-08-23T23:31:42.111Z,17.40
2022-08-23T23:34:09.612Z,17.30
2022-08-23T23:36:37.833Z,17.30
2022-08-23T23:39:06.547Z,17.30
2022-08-23T23:41:33.337Z,17.30
2022-08-23T23:44:00.562Z,17.40
2022-08-23T23:46:28.602Z,17.40
2022-08-23T23:48:56.022Z,17.30
2022-08-23T23:51:29.760Z,17.30
2022-08-23T23:53:59.540Z,17.10
2022-08-23T23:56:30.540Z,17.10
2022-08-23T23:58:58.528Z,17.10
